createdAt,value
2022-11-27T00:01:52.599Z,6.80
2022-11-27T00:04:38.156Z,6.80
2022-11-27T00:07:24.218Z,6.90
2022-11-27T00:10:09.997Z,6.90
2022-11-27T00:12:55.501Z,6.80
2022-11-27T00:15:41.746Z,6.80
2022-11-27T00:18:27.812Z,6.80
2022-11-27T00:21:15.571Z,6.80
2022-11-27T00:24:03.845Z,6.70
2022-11-27T00:26:49.847Z,6.70
2022-11-27T00:29:35.704Z,6.70
2022-11-27T00:32:21.262Z,6.70
2022-11-27T00:35:07.289Z,6.60
2022-11-27T00:37:52.990Z,6.50
2022-11-27T00:40:38.441Z,6.40
2022-11-27T00:43:24.501Z,6.30
2022-11-27T00:46:10.006Z,6.30
2022-11-27T00:48:57.185Z,6.30
2022-11-27T00:51:44.814Z,6.20
2022-11-27T00:54:30.310Z,6.20
2022-11-27T00:57:16.133Z,6.20
2022-11-27T01:00:02.530Z,6.10
2022-11-27T01:02:48.305Z,6.00
2022-11-27T01:05:37.566Z,6.00
2022-11-27T01:08:23.781Z,6.00
2022-11-27T01:11:22.083Z,6.00
2022-11-27T01:14:11.310Z,6.10
2022-11-27T01:16:58.175Z,6.10
2022-11-27T01:19:44.882Z,6.20
2022-11-27T01:22:30.385Z,6.20
2022-11-27T01:25:16.782Z,6.20
2022-11-27T01:28:03.227Z,6.20
2022-11-27T01:30:50.589Z,6.10
2022-11-27T01:33:36.459Z,6.00
2022-11-27T01:36:23.342Z,6.10
2022-11-27T01:39:16.081Z,6.10
2022-11-27T01:42:01.755Z,6.20
2022-11-27T01:44:50.839Z,6.90
2022-11-27T01:47:46.531Z,6.20
2022-11-27T01:50:39.315Z,6.20
2022-11-27T01:53:25.440Z,6.30
2022-11-27T01:56:11.883Z,6.20
2022-11-27T01:58:59.299Z,6.20
2022-11-27T02:01:45.735Z,6.10
2022-11-27T02:04:31.354Z,6.10
2022-11-27T02:07:16.919Z,6.00
2022-11-27T02:10:04.096Z,6.00
2022-11-27T02:12:58.423Z,6.00
2022-11-27T02:16:02.561Z,6.00
2022-11-27T02:19:10.505Z,6.00
2022-11-27T02:22:20.020Z,6.00
2022-11-27T02:25:28.301Z,6.00
2022-11-27T02:28:32.280Z,5.90
2022-11-27T02:31:44.692Z,5.90
2022-11-27T02:34:36.533Z,5.90
2022-11-27T02:37:34.814Z,5.90
2022-11-27T02:40:32.068Z,5.90
2022-11-27T02:43:41.026Z,5.90
2022-11-27T02:46:28.825Z,6.00
2022-11-27T02:49:18.610Z,6.00
2022-11-27T02:52:05.480Z,5.90
2022-11-27T02:54:54.466Z,5.90
2022-11-27T02:57:41.662Z,5.90
2022-11-27T03:00:29.300Z,5.90
2022-11-27T03:03:21.518Z,5.90
2022-11-27T03:06:12.186Z,5.90
2022-11-27T03:09:19.322Z,5.90
2022-11-27T03:12:07.358Z,5.90
2022-11-27T03:14:52.931Z,5.90
2022-11-27T03:18:01.497Z,5.90
2022-11-27T03:20:51.718Z,5.70
2022-11-27T03:23:36.882Z,5.60
2022-11-27T03:26:22.864Z,5.50
2022-11-27T03:29:13.258Z,5.30
2022-11-27T03:32:00.209Z,5.40
2022-11-27T03:34:51.683Z,5.50
2022-11-27T03:37:37.568Z,5.60
2022-11-27T03:40:30.410Z,5.60
2022-11-27T03:43:23.793Z,5.60
2022-11-27T03:46:17.221Z,5.60
2022-11-27T03:49:20.366Z,5.60
2022-11-27T03:52:05.693Z,5.70
2022-11-27T03:55:15.694Z,5.60
2022-11-27T03:58:06.821Z,5.60
2022-11-27T04:00:54.755Z,5.60
2022-11-27T04:03:41.239Z,5.50
2022-11-27T04:06:26.756Z,5.50
2022-11-27T04:09:13.256Z,5.40
2022-11-27T04:11:58.909Z,5.40
2022-11-27T04:14:44.598Z,5.30
2022-11-27T04:17:30.214Z,5.30
2022-11-27T04:20:15.770Z,5.30
2022-11-27T04:23:01.849Z,5.30
2022-11-27T04:25:48.787Z,5.30
2022-11-27T04:28:35.443Z,5.30
2022-11-27T04:31:21.328Z,5.30
2022-11-27T04:34:06.847Z,5.40
2022-11-27T04:36:52.463Z,5.30
2022-11-27T04:39:38.027Z,5.30
2022-11-27T04:42:23.970Z,5.20
2022-11-27T04:45:10.886Z,5.20
2022-11-27T04:47:56.412Z,5.20
2022-11-27T04:50:42.120Z,5.10
2022-11-27T04:53:28.079Z,5.10
2022-11-27T04:56:13.868Z,5.10
2022-11-27T04:58:59.530Z,5.00
2022-11-27T05:01:45.731Z,5.00
2022-11-27T05:04:31.329Z,5.00
2022-11-27T05:07:17.053Z,5.00
2022-11-27T05:10:05.111Z,5.00
2022-11-27T05:12:51.409Z,5.10
2022-11-27T05:15:37.547Z,5.00
2022-11-27T05:18:24.088Z,5.10
2022-11-27T05:21:09.867Z,5.10
2022-11-27T05:23:55.373Z,5.00
2022-11-27T05:26:42.567Z,5.00
2022-11-27T05:29:29.864Z,4.90
2022-11-27T05:32:15.525Z,4.90
2022-11-27T05:35:01.058Z,4.90
2022-11-27T05:37:46.684Z,4.90
2022-11-27T05:40:32.407Z,4.90
2022-11-27T05:43:18.031Z,4.90
2022-11-27T05:46:08.455Z,4.80
2022-11-27T05:48:55.523Z,4.70
2022-11-27T05:51:44.189Z,4.60
2022-11-27T05:54:34.849Z,4.60
2022-11-27T05:57:20.648Z,4.60
2022-11-27T06:00:07.494Z,4.60
2022-11-27T06:02:53.773Z,4.60
2022-11-27T06:05:40.611Z,4.50
2022-11-27T06:08:26.483Z,4.50
2022-11-27T06:11:19.235Z,4.50
2022-11-27T06:14:11.290Z,4.50
2022-11-27T06:16:57.134Z,4.50
2022-11-27T06:19:44.095Z,4.50
2022-11-27T06:22:30.372Z,4.50
2022-11-27T06:25:16.238Z,4.50
2022-11-27T06:28:02.505Z,4.50
2022-11-27T06:30:48.381Z,4.50
2022-11-27T06:33:34.590Z,4.40
2022-11-27T06:36:21.958Z,4.40
2022-11-27T06:39:09.996Z,4.40
2022-11-27T06:41:55.542Z,4.40
2022-11-27T06:44:41.447Z,4.40
2022-11-27T06:47:29.006Z,4.40
2022-11-27T06:50:15.285Z,4.50
2022-11-27T06:53:01.170Z,4.50
2022-11-27T06:55:46.994Z,4.50
2022-11-27T06:58:32.470Z,4.60
2022-11-27T07:01:19.205Z,4.60
2022-11-27T07:04:04.868Z,4.60
2022-11-27T07:06:50.486Z,4.60
2022-11-27T07:09:36.017Z,4.60
2022-11-27T07:12:21.971Z,4.60
2022-11-27T07:15:08.967Z,4.70
2022-11-27T07:17:55.040Z,4.80
2022-11-27T07:20:40.630Z,4.90
2022-11-27T07:23:26.159Z,4.90
2022-11-27T07:26:22.346Z,4.90
2022-11-27T07:29:08.640Z,4.90
2022-11-27T07:31:54.231Z,5.00
2022-11-27T07:34:39.719Z,4.90
2022-11-27T07:37:25.681Z,4.90
2022-11-27T07:40:11.388Z,4.90
2022-11-27T07:42:58.834Z,4.90
2022-11-27T07:45:44.722Z,4.80
2022-11-27T07:48:30.287Z,4.80
2022-11-27T07:51:18.080Z,4.90
2022-11-27T07:54:03.938Z,4.80
2022-11-27T07:56:49.669Z,5.00
2022-11-27T07:59:35.127Z,5.00
2022-11-27T08:02:20.702Z,5.10
2022-11-27T08:05:12.087Z,5.20
2022-11-27T08:08:00.783Z,5.20
2022-11-27T08:10:46.336Z,5.30
2022-11-27T08:13:31.930Z,5.40
2022-11-27T08:16:17.598Z,5.50
2022-11-27T08:19:03.769Z,5.50
2022-11-27T08:21:49.616Z,5.60
2022-11-27T08:24:37.445Z,5.60
2022-11-27T08:27:23.321Z,5.70
2022-11-27T08:30:09.844Z,5.70
2022-11-27T08:32:55.370Z,5.80
2022-11-27T08:35:41.552Z,5.80
2022-11-27T08:38:27.602Z,5.90
2022-11-27T08:41:13.659Z,5.80
2022-11-27T08:43:59.477Z,5.90
2022-11-27T08:46:45.174Z,5.90
2022-11-27T08:49:30.834Z,5.90
2022-11-27T08:52:16.442Z,6.10
2022-11-27T08:55:01.858Z,6.10
2022-11-27T08:57:47.539Z,6.30
2022-11-27T09:00:34.700Z,6.50
2022-11-27T09:03:20.732Z,6.50
2022-11-27T09:06:09.880Z,6.40
2022-11-27T09:08:59.824Z,6.40
2022-11-27T09:11:45.572Z,6.40
2022-11-27T09:14:31.086Z,6.10
2022-11-27T09:17:17.254Z,6.00
2022-11-27T09:20:03.877Z,6.10
2022-11-27T09:22:49.180Z,6.10
2022-11-27T09:25:34.801Z,6.10
2022-11-27T09:28:20.789Z,6.30
2022-11-27T09:31:08.414Z,6.30
2022-11-27T09:33:53.998Z,6.40
2022-11-27T09:36:39.904Z,6.30
2022-11-27T09:39:30.444Z,6.40
2022-11-27T09:42:35.881Z,6.40
2022-11-27T09:45:24.583Z,6.40
2022-11-27T09:48:17.965Z,6.40
2022-11-27T09:51:14.494Z,6.40
2022-11-27T09:54:15.776Z,6.50
2022-11-27T09:57:02.533Z,6.50
2022-11-27T09:59:53.684Z,6.50
2022-11-27T10:02:42.997Z,6.50
2022-11-27T10:06:00.449Z,6.60
2022-11-27T10:09:12.672Z,6.60
2022-11-27T10:12:18.638Z,6.40
2022-11-27T10:15:10.638Z,6.50
2022-11-27T10:18:01.087Z,6.60
2022-11-27T10:20:51.229Z,6.50
2022-11-27T10:24:10.258Z,6.60
2022-11-27T10:26:59.074Z,6.50
2022-11-27T10:29:54.079Z,6.60
2022-11-27T10:32:55.098Z,6.70
2022-11-27T10:35:43.493Z,6.80
2022-11-27T10:38:31.791Z,6.80
2022-11-27T10:41:49.193Z,7.00
2022-11-27T10:44:42.972Z,7.10
2022-11-27T10:47:33.530Z,7.20
2022-11-27T10:50:20.681Z,7.30
2022-11-27T10:53:31.876Z,7.40
2022-11-27T10:57:00.719Z,7.50
2022-11-27T11:00:06.613Z,7.60
2022-11-27T11:03:03.973Z,7.70
2022-11-27T11:09:14.949Z,8.00
2022-11-27T11:12:19.940Z,8.20
2022-11-27T11:15:11.420Z,8.40
2022-11-27T11:17:57.145Z,8.60
2022-11-27T11:20:47.855Z,8.80
2022-11-27T11:23:40.758Z,8.90
2022-11-27T11:26:29.130Z,9.20
2022-11-27T11:29:37.642Z,9.50
2022-11-27T11:32:29.627Z,9.80
2022-11-27T11:35:37.217Z,10.40
2022-11-27T11:38:30.604Z,10.90
2022-11-27T11:41:18.755Z,11.10
2022-11-27T11:44:04.767Z,11.10
2022-11-27T11:46:54.648Z,10.90
2022-11-27T11:49:40.424Z,10.80
2022-11-27T11:52:38.239Z,10.60
2022-11-27T11:55:39.150Z,10.50
2022-11-27T11:58:51.062Z,10.30
2022-11-27T12:01:54.140Z,10.00
2022-11-27T12:05:03.521Z,9.80
2022-11-27T12:08:17.079Z,9.70
2022-11-27T12:11:12.570Z,9.60
2022-11-27T12:14:16.569Z,9.50
2022-11-27T12:17:20.475Z,9.40
2022-11-27T12:20:06.078Z,9.30
2022-11-27T12:23:06.600Z,9.20
2022-11-27T12:26:12.926Z,9.20
2022-11-27T12:29:40.047Z,9.10
2022-11-27T12:32:47.282Z,9.00
2022-11-27T12:35:34.590Z,9.00
2022-11-27T12:38:23.176Z,9.00
2022-11-27T12:41:20.590Z,9.10
2022-11-27T12:44:35.136Z,9.10
2022-11-27T12:47:43.200Z,9.20
2022-11-27T12:50:42.481Z,9.30
2022-11-27T12:53:48.688Z,9.30
2022-11-27T12:56:42.561Z,9.20
2022-11-27T12:59:45.916Z,9.20
2022-11-27T13:02:59.998Z,9.20
2022-11-27T13:05:51.715Z,9.20
2022-11-27T13:08:59.048Z,9.20
2022-11-27T13:11:44.616Z,9.20
2022-11-27T13:14:35.643Z,9.20
2022-11-27T13:17:21.987Z,9.20
2022-11-27T13:20:16.564Z,9.20
2022-11-27T13:23:02.247Z,9.20
2022-11-27T13:25:53.193Z,9.20
2022-11-27T13:28:43.885Z,9.20
2022-11-27T13:31:33.134Z,9.10
2022-11-27T13:34:22.518Z,9.20
2022-11-27T13:37:09.237Z,9.20
2022-11-27T13:40:28.389Z,9.10
2022-11-27T13:43:32.434Z,9.10
2022-11-27T13:46:30.668Z,9.20
2022-11-27T13:49:26.228Z,9.20
2022-11-27T13:52:18.867Z,9.20
2022-11-27T13:55:08.948Z,9.10
2022-11-27T13:57:56.614Z,9.20
2022-11-27T14:00:45.301Z,9.10
2022-11-27T14:03:31.123Z,9.10
2022-11-27T14:06:31.772Z,9.10
2022-11-27T14:09:18.001Z,9.10
2022-11-27T14:12:19.519Z,9.10
2022-11-27T14:15:11.247Z,9.20
2022-11-27T14:18:19.775Z,9.10
2022-11-27T14:21:05.507Z,9.00
2022-11-27T14:23:55.313Z,9.10
2022-11-27T14:26:41.459Z,9.10
2022-11-27T14:29:30.785Z,9.20
2022-11-27T14:32:18.455Z,9.10
2022-11-27T14:35:04.705Z,9.00
2022-11-27T14:37:51.160Z,8.90
2022-11-27T14:40:37.491Z,8.90
2022-11-27T14:43:25.980Z,8.90
2022-11-27T14:46:20.962Z,8.80
2022-11-27T14:49:06.343Z,8.90
2022-11-27T14:51:52.881Z,8.90
2022-11-27T14:54:39.929Z,8.80
2022-11-27T14:57:28.504Z,8.90
2022-11-27T15:00:24.304Z,8.90
2022-11-27T15:03:11.057Z,8.90
2022-11-27T15:06:03.015Z,8.80
2022-11-27T15:09:09.102Z,8.80
2022-11-27T15:12:00.845Z,8.70
2022-11-27T15:14:54.330Z,8.60
2022-11-27T15:17:44.459Z,8.60
2022-11-27T15:20:36.500Z,8.50
2022-11-27T15:23:28.098Z,8.50
2022-11-27T15:26:33.480Z,8.50
2022-11-27T15:29:39.287Z,8.40
2022-11-27T15:32:28.169Z,8.40
2022-11-27T15:35:36.915Z,8.40
2022-11-27T15:38:22.457Z,8.40
2022-11-27T15:41:27.029Z,8.30
2022-11-27T15:44:12.742Z,8.30
2022-11-27T15:47:00.594Z,8.30
2022-11-27T15:49:46.389Z,8.30
2022-11-27T15:52:33.097Z,8.20
2022-11-27T15:55:19.971Z,8.20
2022-11-27T15:58:05.568Z,8.20
2022-11-27T16:01:13.606Z,8.20
2022-11-27T16:04:03.540Z,8.10
2022-11-27T16:06:50.415Z,8.10
2022-11-27T16:09:36.262Z,8.10
2022-11-27T16:12:22.922Z,8.00
2022-11-27T16:15:09.810Z,8.00
2022-11-27T16:17:55.631Z,8.00
2022-11-27T16:20:41.559Z,8.00
2022-11-27T16:23:27.954Z,8.00
2022-11-27T16:26:15.181Z,8.10
2022-11-27T16:29:01.676Z,8.00
2022-11-27T16:31:47.831Z,8.00
2022-11-27T16:34:34.411Z,8.00
2022-11-27T16:37:20.090Z,8.00
2022-11-27T16:40:06.263Z,8.00
2022-11-27T16:42:52.114Z,8.00
2022-11-27T16:45:38.407Z,8.00
2022-11-27T16:48:25.297Z,8.00
2022-11-27T16:51:20.497Z,8.00
2022-11-27T16:54:10.728Z,7.90
2022-11-27T16:57:00.585Z,7.90
2022-11-27T16:59:46.448Z,7.90
2022-11-27T17:02:35.531Z,7.90
2022-11-27T17:05:22.156Z,7.90
2022-11-27T17:08:07.813Z,7.90
2022-11-27T17:10:53.470Z,7.90
2022-11-27T17:13:39.713Z,7.90
2022-11-27T17:16:26.148Z,7.90
2022-11-27T17:19:21.196Z,7.90
2022-11-27T17:22:07.013Z,7.80
2022-11-27T17:24:57.574Z,7.80
2022-11-27T17:27:43.687Z,7.80
2022-11-27T17:30:32.877Z,7.70
2022-11-27T17:33:20.950Z,7.70
2022-11-27T17:36:06.987Z,7.70
2022-11-27T17:38:53.725Z,7.70
2022-11-27T17:41:41.374Z,7.70
2022-11-27T17:44:26.928Z,7.70
2022-11-27T17:47:13.358Z,7.70
2022-11-27T17:49:58.976Z,7.70
2022-11-27T17:52:46.813Z,7.60
2022-11-27T17:55:33.250Z,7.50
2022-11-27T17:58:19.225Z,7.50
2022-11-27T18:01:07.312Z,7.50
2022-11-27T18:03:59.919Z,7.60
2022-11-27T18:06:48.321Z,7.60
2022-11-27T18:09:34.056Z,7.60
2022-11-27T18:12:20.339Z,7.60
2022-11-27T18:15:09.510Z,7.60
2022-11-27T18:17:55.675Z,7.60
2022-11-27T18:20:41.235Z,7.60
2022-11-27T18:23:28.029Z,7.60
2022-11-27T18:26:16.312Z,7.60
2022-11-27T18:29:02.042Z,7.50
2022-11-27T18:31:47.708Z,7.50
2022-11-27T18:34:33.665Z,7.50
2022-11-27T18:37:19.319Z,7.50
2022-11-27T18:40:09.305Z,7.50
2022-11-27T18:42:55.127Z,7.50
2022-11-27T18:45:41.288Z,7.50
2022-11-27T18:48:27.282Z,7.50
2022-11-27T18:51:16.504Z,7.60
2022-11-27T18:54:02.244Z,7.50
2022-11-27T18:56:48.306Z,7.60
2022-11-27T18:59:34.917Z,7.40
2022-11-27T19:02:20.837Z,7.40
2022-11-27T19:05:07.583Z,7.40
2022-11-27T19:07:53.769Z,7.40
2022-11-27T19:10:39.886Z,7.40
2022-11-27T19:13:25.888Z,7.40
2022-11-27T19:16:20.652Z,7.40
2022-11-27T19:19:09.392Z,7.40
2022-11-27T19:22:04.018Z,7.40
2022-11-27T19:24:51.623Z,7.40
2022-11-27T19:27:37.327Z,7.40
2022-11-27T19:30:23.387Z,7.40
2022-11-27T19:33:09.653Z,7.40
2022-11-27T19:36:01.038Z,7.40
2022-11-27T19:38:46.855Z,7.40
2022-11-27T19:41:33.311Z,7.50
2022-11-27T19:44:19.824Z,7.50
2022-11-27T19:47:09.697Z,7.50
2022-11-27T19:49:56.210Z,7.60
2022-11-27T19:52:42.065Z,7.60
2022-11-27T19:55:27.943Z,7.60
2022-11-27T19:58:14.345Z,7.50
2022-11-27T20:01:14.892Z,7.50
2022-11-27T20:04:01.985Z,7.50
2022-11-27T20:06:52.055Z,7.50
2022-11-27T20:09:38.158Z,7.50
2022-11-27T20:12:23.991Z,7.50
2022-11-27T20:15:14.377Z,7.50
2022-11-27T20:18:01.342Z,7.50
2022-11-27T20:20:47.015Z,7.50
2022-11-27T20:23:33.599Z,7.50
2022-11-27T20:26:28.337Z,7.40
2022-11-27T20:29:15.668Z,7.40
2022-11-27T20:32:04.865Z,7.40
2022-11-27T20:34:52.110Z,7.30
2022-11-27T20:37:38.676Z,7.30
2022-11-27T20:40:25.748Z,7.30
2022-11-27T20:43:11.312Z,7.30
2022-11-27T20:45:57.672Z,7.30
2022-11-27T20:48:48.173Z,7.30
2022-11-27T20:51:34.162Z,7.20
2022-11-27T20:54:26.859Z,7.20
2022-11-27T20:57:14.226Z,7.30
2022-11-27T20:59:59.852Z,7.20
2022-11-27T21:02:46.844Z,7.20
2022-11-27T21:05:32.553Z,7.20
2022-11-27T21:08:19.303Z,7.20
2022-11-27T21:11:13.844Z,7.20
2022-11-27T21:14:06.338Z,7.20
2022-11-27T21:16:53.806Z,7.30
2022-11-27T21:19:41.499Z,7.30
2022-11-27T21:22:28.594Z,7.30
2022-11-27T21:25:14.540Z,7.30
2022-11-27T21:28:02.094Z,7.30
2022-11-27T21:30:48.216Z,7.30
2022-11-27T21:33:34.824Z,7.40
2022-11-27T21:36:23.708Z,7.40
2022-11-27T21:39:12.738Z,7.40
2022-11-27T21:41:59.431Z,7.30
2022-11-27T21:44:45.949Z,7.40
2022-11-27T21:47:35.005Z,7.30
2022-11-27T21:50:20.369Z,7.30
2022-11-27T21:53:06.407Z,7.30
2022-11-27T21:55:52.272Z,7.30
2022-11-27T21:59:05.059Z,7.30
2022-11-27T22:01:51.864Z,7.30
2022-11-27T22:04:38.067Z,7.30
2022-11-27T22:07:23.402Z,7.30
2022-11-27T22:10:09.932Z,7.30
2022-11-27T22:12:55.417Z,7.30
2022-11-27T22:15:41.207Z,7.30
2022-11-27T22:18:27.659Z,7.20
2022-11-27T22:21:14.447Z,7.20
2022-11-27T22:24:01.692Z,7.30
2022-11-27T22:26:48.856Z,7.30
2022-11-27T22:29:35.265Z,7.30
2022-11-27T22:32:21.528Z,7.30
2022-11-27T22:35:08.663Z,7.30
2022-11-27T22:37:55.283Z,7.30
2022-11-27T22:40:43.893Z,7.30
2022-11-27T22:43:30.062Z,7.30
2022-11-27T22:46:22.368Z,7.30
2022-11-27T22:49:10.007Z,7.30
2022-11-27T22:51:56.496Z,7.30
2022-11-27T22:54:42.661Z,7.30
2022-11-27T22:57:28.512Z,7.30
2022-11-27T23:00:15.088Z,7.20
2022-11-27T23:03:05.752Z,7.20
2022-11-27T23:05:51.204Z,7.20
2022-11-27T23:08:37.007Z,7.20
2022-11-27T23:11:26.623Z,7.20
2022-11-27T23:14:13.324Z,7.10
2022-11-27T23:16:59.196Z,7.10
2022-11-27T23:19:45.689Z,7.00
2022-11-27T23:22:32.159Z,7.10
2022-11-27T23:25:17.560Z,7.00
2022-11-27T23:28:03.631Z,7.00
2022-11-27T23:31:08.471Z,7.00
2022-11-27T23:33:55.783Z,7.00
2022-11-27T23:36:42.352Z,7.10
2022-11-27T23:39:29.409Z,7.00
2022-11-27T23:42:15.157Z,7.00
2022-11-27T23:45:00.917Z,7.10
2022-11-27T23:47:47.691Z,7.10
2022-11-27T23:50:33.393Z,7.10
2022-11-27T23:53:19.662Z,7.10
2022-11-27T23:56:09.258Z,7.10
2022-11-27T23:58:55.980Z,7.20
